Time;durP1;ratioP1;P1;durP2;ratioP2;P2;SDS_P1;SDS_P2;PMS_P1;PMS_P2;Temp;Humidity;BMP_temperature;BMP_pressure;BME280_temperature;BME280_humidity;BME280_pressure;Samples;Min_cycle;Max_cycle;Signal;HPM_P1;HPM_P2
2022/12/29 00:00:11;;;;;;;48.63;46.80;;;11.20;99.90;;;;;;5040783;28;20801;-82
2022/12/29 00:02:39;;;;;;;51.27;49.37;;;11.20;99.90;;;;;;5041133;28;20484;-82
2022/12/29 00:05:06;;;;;;;57.27;55.17;;;11.20;99.90;;;;;;5040977;28;20480;-82
2022/12/29 00:07:33;;;;;;;50.87;48.87;;;11.10;99.90;;;;;;5040843;28;20541;-82
2022/12/29 00:10:00;;;;;;;56.43;54.43;;;11.20;99.90;;;;;;5041257;28;20967;-82
2022/12/29 00:15:36;;;;;;;36.40;34.90;;;11.10;99.90;;;;;;5041634;28;20444;-82
2022/12/29 00:18:00;;;;;;;45.40;43.70;;;11.10;99.90;;;;;;5041881;28;20504;-83
2022/12/29 00:36:56;;;;;;;19.13;18.33;;;11.50;99.90;;;;;;5040548;28;20483;-82
2022/12/29 00:45:02;;;;;;;7.33;6.83;;;11.60;99.90;;;;;;5039086;28;20436;-83
2022/12/29 00:47:28;;;;;;;9.23;8.73;;;11.60;99.90;;;;;;5040485;28;20450;-83
2022/12/29 00:49:55;;;;;;;11.10;10.50;;;11.60;99.90;;;;;;5040873;28;20448;-83
2022/12/29 00:52:22;;;;;;;8.57;8.00;;;11.50;99.90;;;;;;5039952;28;20456;-82
2022/12/29 00:54:49;;;;;;;6.80;6.30;;;11.50;99.90;;;;;;5040245;28;20463;-82
2022/12/29 00:57:16;;;;;;;7.30;6.90;;;11.50;99.90;;;;;;5039624;28;20827;-82
2022/12/29 00:59:45;;;;;;;7.50;7.00;;;11.50;99.90;;;;;;5039126;28;20455;-83
2022/12/29 01:02:12;;;;;;;5.63;5.23;;;11.50;99.90;;;;;;5039662;28;20492;-83
2022/12/29 01:04:38;;;;;;;5.90;5.50;;;11.60;99.90;;;;;;5038953;28;20445;-83
2022/12/29 01:07:06;;;;;;;8.90;8.40;;;11.60;99.90;;;;;;5039923;28;20487;-83
2022/12/29 01:12:39;;;;;;;15.70;15.00;;;11.50;99.90;;;;;;5039924;28;20478;-83
2022/12/29 01:15:05;;;;;;;10.77;10.17;;;11.40;99.90;;;;;;5037711;28;20456;-83
2022/12/29 01:17:32;;;;;;;6.60;6.20;;;11.60;99.90;;;;;;5038853;28;20453;-83
2022/12/29 01:19:59;;;;;;;5.53;5.13;;;11.70;99.90;;;;;;5039420;28;20510;-83
2022/12/29 01:22:27;;;;;;;4.40;3.53;;;11.60;99.90;;;;;;5039612;28;20538;-83
2022/12/29 01:24:53;;;;;;;3.97;3.07;;;11.70;99.90;;;;;;5038693;28;20479;-83
2022/12/29 01:27:20;;;;;;;3.37;1.90;;;11.70;99.90;;;;;;5038898;28;20448;-83
2022/12/29 01:29:47;;;;;;;4.50;2.27;;;11.60;99.90;;;;;;5039311;28;20460;-83
2022/12/29 01:32:13;;;;;;;3.30;2.00;;;11.60;99.90;;;;;;5038974;28;20452;-84
2022/12/29 01:34:40;;;;;;;3.20;1.40;;;11.60;99.90;;;;;;5038281;28;20452;-83
2022/12/29 01:37:07;;;;;;;3.07;1.30;;;11.80;99.90;;;;;;5038045;28;20479;-83
2022/12/29 01:39:35;;;;;;;3.03;1.50;;;11.90;99.90;;;;;;5039151;28;20458;-83
2022/12/29 01:42:02;;;;;;;3.40;1.20;;;11.90;99.90;;;;;;5038947;28;20487;-84
2022/12/29 01:44:56;;;;;;;3.00;1.47;;;11.80;99.90;;;;;;5038044;28;20452;-84
2022/12/29 01:47:35;;;;;;;3.00;1.23;;;11.90;99.90;;;;;;5014605;28;20455;-84
2022/12/29 01:50:08;;;;;;;3.03;0.90;;;11.80;99.90;;;;;;5038611;28;20452;-83
2022/12/29 01:52:37;;;;;;;3.00;1.07;;;11.90;99.90;;;;;;5039262;28;20444;-83
2022/12/29 01:55:06;;;;;;;3.00;1.03;;;11.90;99.90;;;;;;5038822;28;20454;-84
2022/12/29 01:57:37;;;;;;;4.00;1.10;;;11.90;99.90;;;;;;5039063;28;20456;-83
2022/12/29 02:00:08;;;;;;;3.10;1.00;;;11.90;99.90;;;;;;5038555;28;20448;-83
2022/12/29 02:02:35;;;;;;;5.93;1.10;;;11.80;99.90;;;;;;5039146;28;20545;-84
2022/12/29 02:05:08;;;;;;;4.07;1.40;;;11.70;99.90;;;;;;5038462;28;20448;-84
2022/12/29 02:07:34;;;;;;;3.97;1.13;;;11.70;99.90;;;;;;5039012;28;20845;-83
2022/12/29 02:10:03;;;;;;;3.20;1.00;;;11.70;99.90;;;;;;5038315;28;20964;-85
2022/12/29 02:12:31;;;;;;;10.03;1.53;;;11.70;99.90;;;;;;5038313;28;20463;-84
2022/12/29 02:15:01;;;;;;;3.40;1.07;;;11.70;99.90;;;;;;5037999;28;20453;-83
2022/12/29 02:17:40;;;;;;;4.30;1.30;;;11.70;99.90;;;;;;5039938;28;20456;-85
2022/12/29 02:20:43;;;;;;;4.47;1.40;;;11.80;99.90;;;;;;5039444;28;20452;-84
2022/12/29 02:23:34;;;;;;;3.47;1.00;;;11.80;99.90;;;;;;5039076;28;20476;-83
2022/12/29 02:26:37;;;;;;;5.10;1.27;;;11.70;99.90;;;;;;5021442;28;20480;-83
2022/12/29 02:29:35;;;;;;;4.33;1.30;;;11.60;99.90;;;;;;5039902;28;20459;-83
2022/12/29 02:32:06;;;;;;;5.37;1.10;;;11.60;99.90;;;;;;5041979;28;20462;-83
2022/12/29 02:34:43;;;;;;;4.60;1.27;;;11.70;99.90;;;;;;5043514;28;20439;-82
2022/12/29 02:37:18;;;;;;;4.50;1.30;;;11.80;99.90;;;;;;5042466;28;20452;-83
2022/12/29 02:39:55;;;;;;;5.80;1.63;;;11.90;99.90;;;;;;5043084;28;20916;-83
2022/12/29 02:42:30;;;;;;;3.47;1.13;;;11.90;99.90;;;;;;5042793;28;20482;-84
2022/12/29 02:45:04;;;;;;;3.60;1.23;;;11.90;99.90;;;;;;5042395;28;20971;-85
2022/12/29 02:47:38;;;;;;;3.67;1.00;;;12.10;99.90;;;;;;5043000;28;20440;-83
2022/12/29 02:50:09;;;;;;;3.93;1.07;;;12.10;99.90;;;;;;5042915;28;20987;-84
2022/12/29 02:52:42;;;;;;;4.00;1.30;;;12.10;99.90;;;;;;5041945;28;20563;-83
2022/12/29 02:55:11;;;;;;;3.47;1.03;;;12.20;99.90;;;;;;5041499;28;20479;-85
2022/12/29 02:57:38;;;;;;;3.70;1.10;;;12.20;99.90;;;;;;5042453;28;20474;-84
2022/12/29 03:00:08;;;;;;;5.53;1.27;;;12.20;99.90;;;;;;5042190;28;20451;-84
2022/12/29 03:03:02;;;;;;;3.63;1.20;;;12.20;99.90;;;;;;5042001;28;20468;-84
2022/12/29 03:06:00;;;;;;;3.40;1.17;;;12.20;99.90;;;;;;5022118;28;20841;-85
2022/12/29 03:08:35;;;;;;;9.67;1.10;;;12.20;99.90;;;;;;5022383;28;20464;-84
2022/12/29 03:11:05;;;;;;;3.27;0.83;;;12.20;99.90;;;;;;5024535;28;20845;-83
2022/12/29 03:16:29;;;;;;;3.90;1.00;;;12.00;99.90;;;;;;5042100;28;20540;-84
2022/12/29 03:19:03;;;;;;;3.50;0.97;;;12.10;99.90;;;;;;5041615;28;20440;-83
2022/12/29 03:24:22;;;;;;;3.80;1.00;;;12.00;99.90;;;;;;5041411;28;20538;-84
2022/12/29 03:26:52;;;;;;;3.30;0.90;;;12.10;99.90;;;;;;5041950;28;20464;-84
2022/12/29 03:29:20;;;;;;;3.50;1.10;;;12.00;99.90;;;;;;5040308;28;20452;-83
2022/12/29 03:31:49;;;;;;;3.47;1.00;;;12.10;99.90;;;;;;5041702;28;20452;-85
2022/12/29 03:34:20;;;;;;;7.90;0.90;;;12.10;99.90;;;;;;5041661;28;20452;-84
2022/12/29 03:36:51;;;;;;;3.93;1.10;;;12.10;99.90;;;;;;5039217;28;20475;-85
2022/12/29 03:39:21;;;;;;;3.50;1.30;;;12.10;99.90;;;;;;5041749;28;20462;-84
2022/12/29 03:41:51;;;;;;;3.40;0.90;;;12.00;99.90;;;;;;5041859;28;20453;-84
2022/12/29 03:44:18;;;;;;;3.30;0.93;;;12.00;99.90;;;;;;5040823;28;20869;-83
2022/12/29 03:46:45;;;;;;;4.90;1.73;;;11.90;99.90;;;;;;5041069;28;20476;-86
2022/12/29 03:49:11;;;;;;;3.47;0.93;;;12.00;99.90;;;;;;5042429;28;20451;-82
2022/12/29 03:51:39;;;;;;;3.60;0.90;;;12.00;99.90;;;;;;5043614;28;20452;-86
2022/12/29 03:54:06;;;;;;;12.03;1.30;;;12.20;99.90;;;;;;5041883;28;20448;-84
2022/12/29 03:56:33;;;;;;;3.50;0.83;;;12.20;99.90;;;;;;5040423;28;21034;-84
2022/12/29 03:59:00;;;;;;;3.10;0.70;;;12.20;99.90;;;;;;5040709;28;20455;-84
2022/12/29 04:01:26;;;;;;;3.40;1.10;;;12.10;99.90;;;;;;5041504;28;20449;-84
2022/12/29 04:03:53;;;;;;;8.20;1.00;;;12.00;99.90;;;;;;5040340;28;20491;-82
2022/12/29 04:06:20;;;;;;;3.73;1.10;;;12.00;99.90;;;;;;5039648;28;20494;-84
2022/12/29 04:08:48;;;;;;;3.87;1.00;;;12.00;99.90;;;;;;5042017;28;20448;-84
2022/12/29 04:11:14;;;;;;;5.20;1.10;;;11.90;99.90;;;;;;5041449;28;20464;-84
2022/12/29 04:13:41;;;;;;;4.07;1.00;;;11.80;99.90;;;;;;5040185;28;20453;-83
2022/12/29 04:16:09;;;;;;;3.83;0.83;;;11.70;99.90;;;;;;5039773;28;20472;-83
2022/12/29 04:18:35;;;;;;;3.47;0.90;;;11.80;99.90;;;;;;5040982;28;20510;-83
2022/12/29 04:21:02;;;;;;;3.80;1.30;;;11.80;99.90;;;;;;5040835;28;20458;-84
2022/12/29 04:23:30;;;;;;;4.30;1.00;;;11.80;99.90;;;;;;5041355;28;21224;-84
2022/12/29 04:25:58;;;;;;;4.43;1.00;;;11.80;99.90;;;;;;5041044;28;20482;-84
2022/12/29 04:28:25;;;;;;;6.70;1.83;;;12.00;99.90;;;;;;5042936;28;20539;-84
2022/12/29 04:30:52;;;;;;;7.30;1.53;;;12.00;99.90;;;;;;5041145;28;20479;-84
2022/12/29 04:33:19;;;;;;;3.53;1.30;;;12.00;99.90;;;;;;5042313;28;20456;-83
2022/12/29 04:35:45;;;;;;;6.63;2.20;;;12.10;99.90;;;;;;5041258;28;20487;-83
2022/12/29 04:38:13;;;;;;;5.63;1.97;;;12.20;99.90;;;;;;5040354;28;20460;-84
2022/12/29 04:40:40;;;;;;;4.70;1.60;;;12.20;99.90;;;;;;5020826;28;20464;-83
2022/12/29 04:43:09;;;;;;;6.50;1.30;;;12.30;99.90;;;;;;5040855;28;21000;-84
2022/12/29 04:45:36;;;;;;;3.30;1.00;;;12.40;99.90;;;;;;5040712;28;20484;-84
2022/12/29 04:48:03;;;;;;;7.30;1.03;;;12.40;99.90;;;;;;5040725;28;20444;-85
2022/12/29 04:50:30;;;;;;;4.23;1.10;;;12.50;99.90;;;;;;5041371;28;20456;-85
2022/12/29 04:52:57;;;;;;;4.33;1.40;;;12.50;99.90;;;;;;5041330;28;20448;-84
2022/12/29 04:55:24;;;;;;;6.80;1.30;;;12.40;99.90;;;;;;5041091;28;20476;-85
2022/12/29 04:57:50;;;;;;;5.20;1.50;;;12.50;99.90;;;;;;5041242;28;20463;-85
2022/12/29 05:00:19;;;;;;;3.57;0.93;;;12.30;99.90;;;;;;5059505;28;20594;-84
2022/12/29 05:02:45;;;;;;;4.37;1.00;;;12.30;99.90;;;;;;5044934;28;20448;-85
2022/12/29 05:05:12;;;;;;;6.23;3.27;;;12.20;99.90;;;;;;5042023;28;20468;-85
2022/12/29 05:07:39;;;;;;;4.87;2.07;;;12.20;99.90;;;;;;5042754;28;20444;-84
2022/12/29 05:10:07;;;;;;;6.23;2.10;;;12.30;99.90;;;;;;5042016;28;20444;-85
2022/12/29 05:12:36;;;;;;;6.20;2.10;;;12.30;99.90;;;;;;5042798;28;20451;-85
2022/12/29 05:15:03;;;;;;;3.70;1.60;;;12.30;99.90;;;;;;5041108;28;20944;-84
2022/12/29 05:17:31;;;;;;;4.80;1.40;;;12.30;99.90;;;;;;5041650;28;20462;-84
2022/12/29 05:19:58;;;;;;;4.33;1.33;;;12.30;99.90;;;;;;5042052;28;20448;-82
2022/12/29 05:22:25;;;;;;;4.20;1.13;;;12.30;99.90;;;;;;5040352;28;20451;-85
2022/12/29 05:24:52;;;;;;;3.77;1.23;;;12.20;99.90;;;;;;5040027;28;20498;-84
2022/12/29 05:27:18;;;;;;;5.93;1.70;;;12.30;99.90;;;;;;5039593;28;20455;-84
2022/12/29 05:29:45;;;;;;;3.43;1.17;;;12.30;99.90;;;;;;5039926;28;20457;-85
2022/12/29 05:32:12;;;;;;;3.80;1.43;;;12.30;99.90;;;;;;5039576;28;20452;-85
2022/12/29 05:34:40;;;;;;;8.07;1.30;;;12.20;99.90;;;;;;5041297;28;20455;-82
2022/12/29 05:37:07;;;;;;;8.13;1.27;;;12.00;99.90;;;;;;5040421;28;20467;-85
2022/12/29 05:39:34;;;;;;;5.43;1.40;;;12.00;99.90;;;;;;5042495;28;20519;-84
2022/12/29 05:42:00;;;;;;;3.67;1.10;;;11.80;99.90;;;;;;5041247;28;20455;-85
2022/12/29 05:44:27;;;;;;;3.33;1.03;;;11.80;99.90;;;;;;5039924;28;21031;-84
2022/12/29 05:46:54;;;;;;;5.40;1.40;;;11.70;99.90;;;;;;5040424;28;20476;-84
2022/12/29 05:49:21;;;;;;;4.63;1.53;;;11.70;99.90;;;;;;5040512;28;20448;-84
2022/12/29 05:51:49;;;;;;;3.30;0.90;;;11.70;99.90;;;;;;5040800;28;20456;-84
2022/12/29 05:54:16;;;;;;;5.33;1.20;;;11.70;99.90;;;;;;5039895;28;20444;-84
2022/12/29 05:56:42;;;;;;;4.20;1.33;;;11.70;99.90;;;;;;5039884;28;20478;-84
2022/12/29 05:59:09;;;;;;;7.30;1.20;;;11.70;99.90;;;;;;5040488;28;20456;-84
2022/12/29 06:01:36;;;;;;;3.87;1.00;;;11.70;99.90;;;;;;5039909;28;20452;-85
2022/12/29 06:04:03;;;;;;;5.30;1.47;;;11.60;99.90;;;;;;5040366;28;20866;-84
2022/12/29 06:06:29;;;;;;;10.13;1.00;;;11.60;99.90;;;;;;5040225;28;20483;-85
2022/12/29 06:08:57;;;;;;;6.67;1.40;;;11.60;99.90;;;;;;5041022;28;20518;-85
2022/12/29 06:11:24;;;;;;;3.20;0.90;;;11.50;99.90;;;;;;5039829;28;20462;-85
2022/12/29 06:13:51;;;;;;;4.53;1.33;;;11.60;99.90;;;;;;5040345;28;20452;-85
2022/12/29 06:16:18;;;;;;;6.33;1.27;;;11.60;99.90;;;;;;5038704;28;20464;-85
2022/12/29 06:18:44;;;;;;;3.40;1.30;;;11.50;99.90;;;;;;5040409;28;20466;-84
2022/12/29 06:21:11;;;;;;;4.13;1.43;;;11.50;99.90;;;;;;5040408;28;20456;-84
2022/12/29 06:23:38;;;;;;;5.80;1.30;;;11.40;99.90;;;;;;5039969;28;20487;-84
2022/12/29 06:26:06;;;;;;;14.10;1.87;;;11.40;99.90;;;;;;5039842;28;20472;-85
2022/12/29 06:28:33;;;;;;;4.50;1.27;;;11.30;99.90;;;;;;5038221;28;20448;-84
2022/12/29 06:31:01;;;;;;;12.93;1.77;;;11.30;99.90;;;;;;5039969;28;20448;-82
2022/12/29 06:33:28;;;;;;;10.23;1.43;;;11.30;99.90;;;;;;5040994;28;20471;-83
2022/12/29 06:35:55;;;;;;;12.40;1.93;;;11.30;99.90;;;;;;5039480;28;20474;-84
2022/12/29 06:38:22;;;;;;;8.57;2.07;;;11.20;99.90;;;;;;5039119;28;20448;-83
2022/12/29 06:40:48;;;;;;;4.20;1.57;;;11.50;99.90;;;;;;5040807;28;20455;-83
2022/12/29 06:43:16;;;;;;;5.10;1.20;;;11.40;99.90;;;;;;5039419;28;20524;-84
2022/12/29 06:45:43;;;;;;;9.47;2.20;;;11.50;99.90;;;;;;5040156;28;21010;-83
2022/12/29 06:48:10;;;;;;;3.70;1.30;;;11.60;99.90;;;;;;5039754;28;20463;-84
2022/12/29 06:50:37;;;;;;;4.10;1.30;;;11.50;99.90;;;;;;5039852;28;20458;-83
2022/12/29 06:53:04;;;;;;;6.80;1.57;;;11.50;99.90;;;;;;5040265;28;20448;-84
2022/12/29 06:58:16;;;;;;;4.60;1.30;;;11.70;99.90;;;;;;5022898;28;20971;-83
2022/12/29 07:00:43;;;;;;;4.50;1.17;;;11.80;99.90;;;;;;5039521;28;20455;-84
2022/12/29 07:03:18;;;;;;;4.23;1.17;;;11.90;99.90;;;;;;5038316;28;20454;-85
2022/12/29 07:05:44;;;;;;;5.23;1.60;;;11.90;99.90;;;;;;5037784;28;20503;-84
2022/12/29 07:08:11;;;;;;;5.67;1.37;;;12.00;99.90;;;;;;5039637;28;20449;-85
2022/12/29 07:10:38;;;;;;;6.10;1.50;;;12.00;99.90;;;;;;5041436;28;20452;-84
2022/12/29 07:13:06;;;;;;;4.90;1.30;;;11.90;99.90;;;;;;5042767;28;20944;-84
2022/12/29 07:15:42;;;;;;;6.60;1.53;;;11.90;99.90;;;;;;5044010;28;20464;-84
2022/12/29 07:21:22;;;;;;;7.57;1.30;;;11.70;99.90;;;;;;5009525;28;20444;-83
2022/12/29 07:23:49;;;;;;;4.13;1.40;;;11.90;99.90;;;;;;5042945;28;20851;-83
2022/12/29 07:26:17;;;;;;;3.70;0.90;;;11.70;99.90;;;;;;5041301;28;20480;-83
2022/12/29 07:28:45;;;;;;;4.37;1.20;;;11.40;99.90;;;;;;5042193;28;20460;-84
2022/12/29 07:31:16;;;;;;;5.30;1.30;;;11.40;99.90;;;;;;5042059;28;20562;-84
2022/12/29 07:33:44;;;;;;;3.60;0.90;;;11.40;99.90;;;;;;5043027;28;20448;-84
2022/12/29 07:36:29;;;;;;;4.13;1.23;;;11.40;99.90;;;;;;5041504;28;20464;-85
2022/12/29 07:38:55;;;;;;;3.95;1.20;;;11.50;99.90;;;;;;5039648;28;20969;-85
2022/12/29 07:41:22;;;;;;;3.73;0.90;;;11.40;99.90;;;;;;5042830;28;20202;-84
2022/12/29 07:43:52;;;;;;;5.10;1.27;;;11.40;99.90;;;;;;5042450;28;20503;-84
2022/12/29 07:49:37;;;;;;;7.40;1.60;;;11.30;99.90;;;;;;5028791;28;20539;-84
2022/12/29 07:52:04;;;;;;;8.50;1.47;;;11.30;99.90;;;;;;5041371;28;20467;-84
2022/12/29 07:54:53;;;;;;;7.37;1.10;;;11.30;99.90;;;;;;5041930;28;20444;-84
2022/12/29 07:57:20;;;;;;;4.23;1.40;;;11.30;99.90;;;;;;5040828;28;20449;-85
2022/12/29 07:59:46;;;;;;;5.30;1.20;;;11.40;99.90;;;;;;5042124;28;20452;-83
2022/12/29 08:02:19;;;;;;;7.43;1.50;;;11.40;99.90;;;;;;5041910;28;20983;-84
2022/12/29 08:04:47;;;;;;;6.93;1.50;;;11.40;99.90;;;;;;5041932;28;20484;-84
2022/12/29 08:07:56;;;;;;;7.53;1.47;;;11.40;99.90;;;;;;5043281;28;20498;-82
2022/12/29 08:10:23;;;;;;;7.37;1.67;;;11.40;99.90;;;;;;5028178;28;20456;-84
2022/12/29 08:12:50;;;;;;;5.33;1.30;;;11.30;99.90;;;;;;5042710;28;20452;-84
2022/12/29 08:15:17;;;;;;;5.90;1.93;;;11.40;99.90;;;;;;5042956;28;20468;-85
2022/12/29 08:17:43;;;;;;;7.10;1.50;;;11.40;99.90;;;;;;5041714;28;20452;-84
2022/12/29 08:20:12;;;;;;;5.30;1.10;;;11.50;99.90;;;;;;5040730;28;20449;-84
2022/12/29 08:22:38;;;;;;;6.30;1.73;;;11.60;99.90;;;;;;5042415;28;20464;-84
2022/12/29 08:25:06;;;;;;;6.40;1.43;;;11.50;99.90;;;;;;5040537;28;20483;-84
2022/12/29 08:27:46;;;;;;;5.20;1.10;;;11.50;99.90;;;;;;5056641;28;20451;-84
2022/12/29 08:30:14;;;;;;;4.17;1.30;;;11.50;99.90;;;;;;5061651;28;20477;-84
2022/12/29 08:32:40;;;;;;;5.17;1.30;;;11.60;99.90;;;;;;5061397;28;20456;-84
2022/12/29 08:35:17;;;;;;;5.70;1.80;;;11.60;99.90;;;;;;5061420;28;20550;-84
2022/12/29 08:40:56;;;;;;;8.33;2.10;;;11.60;99.90;;;;;;4918444;28;20454;-82
2022/12/29 08:46:55;;;;;;;9.47;1.47;;;11.70;99.90;;;;;;4940183;29;20860;-84
2022/12/29 08:49:22;;;;;;;7.20;1.30;;;11.70;99.90;;;;;;4940691;29;20459;-84
2022/12/29 08:55:28;;;;;;;6.00;1.53;;;11.70;99.90;;;;;;5040821;28;20573;-84
2022/12/29 08:58:16;;;;;;;4.43;1.20;;;11.50;99.90;;;;;;5054834;28;20849;-84
2022/12/29 09:01:21;;;;;;;6.60;1.50;;;11.50;99.90;;;;;;5060928;28;20462;-84
2022/12/29 09:03:48;;;;;;;8.13;2.37;;;11.50;99.90;;;;;;5060905;28;20550;-84
2022/12/29 09:07:00;;;;;;;5.90;1.40;;;11.40;99.90;;;;;;5060415;28;20482;-86
2022/12/29 09:09:27;;;;;;;10.10;1.50;;;11.50;99.90;;;;;;5040020;28;20528;-84
2022/12/29 09:12:21;;;;;;;7.17;1.90;;;11.40;99.90;;;;;;5061028;28;20550;-85
2022/12/29 09:14:51;;;;;;;3.60;1.20;;;11.50;99.90;;;;;;5053712;28;20458;-82
2022/12/29 09:20:02;;;;;;;10.53;1.40;;;11.50;99.90;;;;;;5060868;28;20465;-84
2022/12/29 09:23:12;;;;;;;6.40;1.47;;;11.70;99.90;;;;;;5060850;28;20538;-84
2022/12/29 09:25:55;;;;;;;6.63;1.37;;;11.70;99.90;;;;;;5045790;28;20509;-84
2022/12/29 09:28:22;;;;;;;7.30;1.20;;;11.70;99.90;;;;;;5060776;28;20452;-84
2022/12/29 09:30:59;;;;;;;7.30;2.00;;;11.80;99.90;;;;;;5060147;28;20734;-84
2022/12/29 09:33:25;;;;;;;10.93;2.13;;;11.80;99.90;;;;;;5059833;28;20516;-84
2022/12/29 09:35:54;;;;;;;9.50;2.17;;;11.70;99.90;;;;;;5059839;28;20479;-84
2022/12/29 09:38:21;;;;;;;5.63;1.40;;;11.80;99.90;;;;;;5060701;28;20545;-83
2022/12/29 09:40:52;;;;;;;11.87;1.63;;;11.80;99.90;;;;;;5059811;28;20451;-84
2022/12/29 09:47:10;;;;;;;7.43;1.70;;;11.90;99.90;;;;;;4954586;28;20899;-84
2022/12/29 09:49:45;;;;;;;5.83;1.40;;;12.00;99.90;;;;;;5044621;28;20817;-84
2022/12/29 09:52:16;;;;;;;10.73;2.47;;;12.00;98.70;;;;;;5061131;28;20486;-84
2022/12/29 09:54:51;;;;;;;7.60;1.57;;;12.00;99.00;;;;;;5059927;28;20528;-84
2022/12/29 09:57:49;;;;;;;10.50;1.80;;;11.90;99.40;;;;;;5059917;28;20447;-83
2022/12/29 10:01:07;;;;;;;7.53;1.87;;;11.90;99.00;;;;;;5037587;28;20451;-84
2022/12/29 10:03:47;;;;;;;13.83;2.00;;;12.10;99.60;;;;;;5029127;28;20452;-84
2022/12/29 10:06:21;;;;;;;12.07;2.03;;;12.00;99.00;;;;;;5037789;28;20479;-84
2022/12/29 10:18:49;;;;;;;15.63;1.83;;;11.90;98.40;;;;;;4935890;28;20584;-86
2022/12/29 10:21:25;;;;;;;5.20;1.50;;;12.00;98.70;;;;;;5052323;28;20460;-85
2022/12/29 10:31:29;;;;;;;;;;;;;;;;;;;;;
2022/12/29 10:40:39;;;;;;;10.30;1.50;;;12.50;96.90;;;;;;4989469;28;20445;-83
2022/12/29 10:43:23;;;;;;;7.67;2.00;;;12.60;96.70;;;;;;5060871;28;20443;-84
2022/12/29 10:45:53;;;;;;;12.80;2.63;;;12.50;96.70;;;;;;5060954;28;20479;-84
2022/12/29 10:48:23;;;;;;;8.57;1.87;;;12.60;97.00;;;;;;5064999;28;20546;-84
2022/12/29 10:50:54;;;;;;;11.40;2.00;;;12.60;96.60;;;;;;5064216;28;20458;-84
2022/12/29 10:53:56;;;;;;;7.43;1.70;;;12.70;97.40;;;;;;5065361;28;20458;-84
2022/12/29 10:56:35;;;;;;;9.47;1.70;;;12.70;95.40;;;;;;5059899;28;20469;-84
2022/12/29 10:59:19;;;;;;;12.17;1.57;;;12.70;96.20;;;;;;5064047;28;20450;-85
2022/12/29 11:02:19;;;;;;;4.37;1.17;;;12.60;96.00;;;;;;5064415;28;20479;-84
2022/12/29 11:05:41;;;;;;;9.07;2.00;;;12.70;96.20;;;;;;5064177;28;20479;-85
2022/12/29 11:08:13;;;;;;;8.17;1.33;;;12.90;96.10;;;;;;5058769;28;20459;-84
2022/12/29 11:10:42;;;;;;;7.00;1.60;;;12.80;95.30;;;;;;5062913;28;20459;-83
2022/12/29 11:13:15;;;;;;;5.70;1.53;;;12.90;95.90;;;;;;5064416;28;20507;-84
2022/12/29 11:15:44;;;;;;;12.10;1.57;;;13.00;94.90;;;;;;5064894;28;20467;-86
2022/12/29 11:18:23;;;;;;;9.43;1.87;;;13.00;94.40;;;;;;5064974;28;20461;-84
2022/12/29 11:20:52;;;;;;;5.50;1.33;;;12.90;95.00;;;;;;5065381;28;20474;-85
2022/12/29 11:23:30;;;;;;;6.83;1.30;;;12.80;94.70;;;;;;5064874;28;20917;-85
2022/12/29 11:26:24;;;;;;;5.30;1.40;;;12.80;94.40;;;;;;5064364;28;21013;-84
2022/12/29 11:29:21;;;;;;;9.50;1.80;;;12.90;94.90;;;;;;5040300;28;20447;-84
2022/12/29 11:31:50;;;;;;;8.33;1.43;;;12.80;94.80;;;;;;5065688;28;20471;-84
2022/12/29 11:34:43;;;;;;;6.03;2.00;;;12.80;95.00;;;;;;5065629;28;20485;-84
2022/12/29 11:37:13;;;;;;;7.80;2.30;;;12.60;95.40;;;;;;5060715;28;20467;-84
2022/12/29 11:39:45;;;;;;;11.60;1.60;;;12.50;95.00;;;;;;5065297;28;20447;-85
2022/12/29 11:42:16;;;;;;;8.13;1.33;;;12.40;95.10;;;;;;5064384;28;20452;-84
2022/12/29 11:44:46;;;;;;;7.23;1.40;;;12.30;95.30;;;;;;5062901;28;20451;-84
2022/12/29 11:50:33;;;;;;;6.17;1.40;;;12.40;95.00;;;;;;5060963;28;20439;-84
2022/12/29 11:53:04;;;;;;;5.63;1.40;;;12.30;94.60;;;;;;5064928;28;20446;-84
2022/12/29 11:55:32;;;;;;;10.40;1.60;;;12.20;95.20;;;;;;5061796;28;20478;-85
2022/12/29 11:58:03;;;;;;;10.03;1.77;;;12.20;95.80;;;;;;5061284;28;20454;-85
2022/12/29 12:00:35;;;;;;;5.63;1.27;;;12.20;95.20;;;;;;5059045;28;20460;-84
2022/12/29 12:03:27;;;;;;;6.23;1.00;;;12.10;95.50;;;;;;5057163;28;20546;-86
2022/12/29 12:05:59;;;;;;;10.40;1.80;;;12.20;95.30;;;;;;5045203;28;20992;-85
2022/12/29 12:08:35;;;;;;;9.93;1.20;;;12.00;95.90;;;;;;5056017;28;20503;-86
2022/12/29 12:11:10;;;;;;;8.87;1.43;;;12.00;94.20;;;;;;5056723;28;20451;-85
2022/12/29 12:13:43;;;;;;;5.57;1.20;;;12.00;95.40;;;;;;5057188;28;20440;-85
2022/12/29 12:16:16;;;;;;;9.03;1.40;;;12.10;95.80;;;;;;5057895;28;20472;-84
2022/12/29 12:18:48;;;;;;;9.60;1.50;;;12.10;95.40;;;;;;5059365;28;20895;-83
2022/12/29 12:21:21;;;;;;;5.70;1.40;;;12.10;95.50;;;;;;5058954;28;20509;-85
2022/12/29 12:24:14;;;;;;;6.90;1.60;;;12.10;95.20;;;;;;5058226;28;20530;-82
2022/12/29 12:26:54;;;;;;;5.20;1.30;;;12.20;95.30;;;;;;5059906;28;20507;-84
2022/12/29 12:30:02;;;;;;;12.40;1.50;;;12.20;95.70;;;;;;5061729;28;20458;-84
2022/12/29 12:32:43;;;;;;;8.23;1.60;;;12.10;95.30;;;;;;4961597;29;20460;-84
2022/12/29 12:35:13;;;;;;;5.97;1.67;;;12.00;95.50;;;;;;5020596;28;20521;-85
2022/12/29 12:38:10;;;;;;;5.93;1.73;;;12.00;95.70;;;;;;5063438;28;20451;-84
2022/12/29 12:41:00;;;;;;;7.25;1.52;;;12.00;95.60;;;;;;5060732;28;20827;-85
2022/12/29 12:43:47;;;;;;;6.93;1.00;;;12.10;95.30;;;;;;5062363;28;20201;-87
2022/12/29 12:46:38;;;;;;;5.73;1.47;;;12.00;94.60;;;;;;5060918;28;20478;-84
2022/12/29 12:49:20;;;;;;;8.60;1.40;;;12.00;95.10;;;;;;5058572;28;20452;-84
2022/12/29 12:51:56;;;;;;;10.47;2.40;;;12.00;95.30;;;;;;5057356;28;20490;-85
2022/12/29 12:54:43;;;;;;;9.47;1.33;;;12.00;94.90;;;;;;5058232;28;20523;-82
2022/12/29 12:57:21;;;;;;;10.90;1.50;;;11.90;95.10;;;;;;5019334;28;20465;-84
2022/12/29 12:59:57;;;;;;;6.13;1.50;;;11.90;95.10;;;;;;5017706;28;20455;-83
2022/12/29 13:03:02;;;;;;;4.73;1.40;;;11.90;94.90;;;;;;5018533;28;20433;-84
2022/12/29 13:05:41;;;;;;;5.60;1.53;;;11.80;95.10;;;;;;5018341;28;20485;-85
2022/12/29 13:08:37;;;;;;;5.73;1.27;;;11.90;94.70;;;;;;5018428;28;20543;-84
2022/12/29 13:11:13;;;;;;;5.13;1.00;;;12.00;95.10;;;;;;5017540;28;20532;-85
2022/12/29 13:14:07;;;;;;;7.23;1.70;;;12.00;94.10;;;;;;5019191;28;20436;-84
2022/12/29 13:16:42;;;;;;;4.97;1.10;;;12.00;93.90;;;;;;5019072;28;20469;-85
2022/12/29 13:19:14;;;;;;;9.47;1.50;;;11.90;94.00;;;;;;5018879;28;20456;-85
2022/12/29 13:21:57;;;;;;;5.40;1.13;;;11.80;93.70;;;;;;5018462;28;20461;-86
2022/12/29 13:24:32;;;;;;;6.70;1.20;;;11.70;94.00;;;;;;5019767;28;20464;-85
2022/12/29 13:27:38;;;;;;;6.73;2.43;;;11.80;94.70;;;;;;5016858;28;20491;-85
2022/12/29 13:30:31;;;;;;;5.17;1.47;;;11.90;93.40;;;;;;5016930;28;20907;-85
2022/12/29 13:33:19;;;;;;;7.07;1.20;;;11.80;93.50;;;;;;5002528;28;20453;-85
2022/12/29 13:35:56;;;;;;;7.50;2.60;;;11.70;94.10;;;;;;5017606;28;21009;-85
2022/12/29 13:38:28;;;;;;;6.40;1.30;;;11.50;93.90;;;;;;5018383;28;20449;-86
2022/12/29 13:41:00;;;;;;;10.30;1.53;;;11.40;94.10;;;;;;5018664;28;20460;-85
2022/12/29 13:46:39;;;;;;;8.20;1.23;;;11.50;94.00;;;;;;4979597;28;20480;-85
2022/12/29 13:49:12;;;;;;;11.07;1.80;;;11.50;94.70;;;;;;5017005;28;20460;-85
2022/12/29 13:51:43;;;;;;;7.70;1.60;;;11.50;94.90;;;;;;5016869;28;20968;-85
2022/12/29 13:54:25;;;;;;;5.30;1.27;;;11.60;95.10;;;;;;5017829;28;20463;-85
2022/12/29 13:56:57;;;;;;;6.00;1.43;;;11.50;95.00;;;;;;5018236;28;20481;-86
2022/12/29 13:59:48;;;;;;;;;;;;;;;;;;;;;
2022/12/29 14:02:22;;;;;;;6.77;1.13;;;11.60;95.30;;;;;;5011885;28;20461;-85
2022/12/29 14:05:00;;;;;;;5.30;1.20;;;11.60;94.10;;;;;;5018928;28;20457;-86
2022/12/29 14:07:28;;;;;;;7.20;1.13;;;11.60;94.30;;;;;;5019559;28;20487;-85
2022/12/29 14:10:00;;;;;;;4.40;1.27;;;11.60;94.50;;;;;;5018847;28;20891;-86
2022/12/29 14:12:32;;;;;;;6.53;1.30;;;11.50;94.40;;;;;;5019926;28;20557;-86
2022/12/29 14:15:21;;;;;;;5.10;1.47;;;11.50;94.20;;;;;;5020707;28;20457;-86
2022/12/29 14:18:05;;;;;;;4.23;1.33;;;11.40;94.10;;;;;;5017775;28;20460;-85
2022/12/29 14:20:52;;;;;;;5.47;1.10;;;11.30;94.50;;;;;;5018017;28;20952;-85
2022/12/29 14:23:39;;;;;;;6.00;1.17;;;11.30;93.30;;;;;;5025992;28;20440;-85
2022/12/29 14:26:17;;;;;;;8.50;1.77;;;11.30;93.60;;;;;;5025049;28;20491;-85
2022/12/29 14:28:46;;;;;;;5.70;2.10;;;11.20;93.80;;;;;;5025740;28;20514;-85
2022/12/29 14:31:43;;;;;;;4.67;1.13;;;11.20;94.50;;;;;;5026409;28;20453;-85
2022/12/29 14:35:09;;;;;;;;;;;;;;;;;;;;;
2022/12/29 14:37:38;;;;;;;8.40;1.50;;;11.10;94.80;;;;;;5025914;28;20899;-85
2022/12/29 14:40:39;;;;;;;6.83;1.70;;;11.00;94.90;;;;;;5026693;28;20452;-84
2022/12/29 14:46:20;;;;;;;14.73;2.50;;;11.00;96.20;;;;;;5005900;28;20477;-86
2022/12/29 14:49:11;;;;;;;6.93;1.90;;;11.00;96.40;;;;;;5026183;28;20452;-86
2022/12/29 14:51:39;;;;;;;7.90;2.20;;;11.00;96.70;;;;;;5020684;28;20953;-85
2022/12/29 14:54:48;;;;;;;6.63;1.63;;;10.90;96.60;;;;;;5027024;28;20447;-85